createdAt,value
2022-12-25T00:00:41.123Z,979.97
2022-12-25T00:06:12.945Z,979.94
2022-12-25T00:11:44.089Z,980.11
2022-12-25T00:17:15.768Z,980.25
2022-12-25T00:22:47.567Z,980.37
2022-12-25T00:28:19.282Z,980.04
2022-12-25T00:33:51.084Z,979.98
2022-12-25T00:39:29.331Z,979.92
2022-12-25T00:45:01.046Z,979.45
2022-12-25T00:50:32.312Z,979.42
2022-12-25T00:56:04.117Z,979.6
2022-12-25T01:01:36.226Z,979.29
2022-12-25T01:07:08.093Z,979.69
2022-12-25T01:12:39.456Z,979.9
2022-12-25T01:18:13.711Z,979.91
2022-12-25T01:23:42.836Z,979.87
2022-12-25T01:29:14.412Z,979.47
2022-12-25T01:34:56.735Z,979.51
2022-12-25T01:40:22.313Z,979.86
2022-12-25T01:45:54.420Z,979.78
2022-12-25T01:51:25.907Z,979.89
2022-12-25T01:56:57.740Z,979.84
2022-12-25T02:02:30.020Z,979.87
2022-12-25T02:08:01.633Z,979.89
2022-12-25T02:13:33.112Z,979.71
2022-12-25T02:19:04.911Z,979.86
2022-12-25T02:24:36.361Z,979.85
2022-12-25T02:30:08.368Z,979.71
2022-12-25T02:35:40.183Z,979.58
2022-12-25T02:41:15.731Z,979.55
2022-12-25T02:46:47.836Z,979.14
2022-12-25T02:52:20.067Z,979.51
2022-12-25T02:57:51.271Z,979.44
2022-12-25T03:03:22.752Z,979.9
2022-12-25T03:08:54.351Z,979.46
2022-12-25T03:14:26.397Z,979.64
2022-12-25T03:19:57.805Z,979.39
2022-12-25T03:25:29.759Z,979.43
2022-12-25T03:31:01.732Z,979.15
2022-12-25T03:36:33.307Z,979.2
2022-12-25T03:42:10.960Z,979.05
2022-12-25T03:47:43.207Z,978.8
2022-12-25T03:53:14.809Z,978.76
2022-12-25T03:58:46.540Z,979.19
2022-12-25T04:04:18.916Z,979.08
2022-12-25T04:09:49.731Z,979.15
2022-12-25T04:15:21.903Z,979.45
2022-12-25T04:20:54.167Z,979.33
2022-12-25T04:26:24.954Z,979.39
2022-12-25T04:31:56.584Z,979.38
2022-12-25T04:37:28.621Z,979.24
2022-12-25T04:43:04.571Z,979.33
2022-12-25T04:48:36.142Z,979.67
2022-12-25T04:54:07.824Z,979.74
2022-12-25T04:59:39.854Z,979.69
2022-12-25T05:05:12.440Z,979.56
2022-12-25T05:10:43.504Z,979.28
2022-12-25T05:16:15.433Z,979.52
2022-12-25T05:21:46.952Z,979.4
2022-12-25T05:27:18.072Z,979.62
2022-12-25T05:32:49.775Z,979.25
2022-12-25T05:38:22.021Z,979.47
2022-12-25T05:43:59.852Z,979.62
2022-12-25T05:49:32.676Z,979.79
2022-12-25T05:55:03.291Z,980.03
2022-12-25T06:00:35.245Z,979.99
2022-12-25T06:06:06.831Z,980.0
2022-12-25T06:11:38.310Z,979.71
2022-12-25T06:17:10.238Z,979.65
2022-12-25T06:22:42.142Z,980.03
2022-12-25T06:28:13.745Z,979.59
2022-12-25T06:33:45.454Z,979.68
2022-12-25T06:39:16.925Z,979.75
2022-12-25T06:44:54.037Z,979.94
2022-12-25T06:50:24.952Z,980.09
2022-12-25T06:55:56.811Z,979.98
2022-12-25T07:01:29.504Z,980.14
2022-12-25T07:07:09.771Z,980.02
2022-12-25T07:12:31.935Z,980.49
2022-12-25T07:18:03.968Z,980.67
2022-12-25T07:23:35.261Z,980.58
2022-12-25T07:29:07.046Z,980.51
2022-12-25T07:34:39.429Z,980.07
2022-12-25T07:40:10.541Z,979.6
2022-12-25T07:45:46.963Z,979.48
2022-12-25T07:51:18.320Z,979.32
2022-12-25T07:56:50.191Z,979.6
2022-12-25T08:02:22.583Z,980.09
2022-12-25T08:07:58.926Z,980.35
2022-12-25T08:13:25.944Z,979.94
2022-12-25T08:18:56.957Z,980.17
2022-12-25T08:24:28.677Z,980.03
2022-12-25T08:30:01.637Z,980.62
2022-12-25T08:35:32.253Z,980.83
2022-12-25T08:41:03.817Z,980.8
2022-12-25T08:46:40.029Z,980.8
2022-12-25T08:52:12.525Z,981.1
2022-12-25T08:57:43.243Z,980.49
2022-12-25T09:03:15.235Z,980.07
2022-12-25T09:08:50.955Z,979.74
2022-12-25T09:14:18.612Z,979.85
2022-12-25T09:19:50.340Z,980.07
2022-12-25T09:25:23.313Z,980.2
2022-12-25T09:30:54.096Z,980.79
2022-12-25T09:36:25.959Z,980.62
2022-12-25T09:41:57.168Z,980.43
2022-12-25T09:47:34.367Z,980.69
2022-12-25T09:53:05.026Z,980.87
2022-12-25T09:58:37.657Z,981.14
2022-12-25T10:04:08.628Z,981.2
2022-12-25T10:09:40.652Z,981.03
2022-12-25T10:15:12.107Z,981.23
2022-12-25T10:20:43.727Z,981.2
2022-12-25T10:26:15.360Z,981.15
2022-12-25T10:31:47.042Z,981.38
2022-12-25T10:37:18.738Z,981.18
2022-12-25T10:42:50.342Z,981.03
2022-12-25T10:48:26.560Z,981.23
2022-12-25T10:53:58.321Z,980.94
2022-12-25T10:59:29.901Z,981.06
2022-12-25T11:05:01.964Z,980.97
2022-12-25T11:10:33.880Z,980.98
2022-12-25T11:16:05.690Z,980.81
2022-12-25T11:21:37.145Z,980.93
2022-12-25T11:27:08.979Z,980.96
2022-12-25T11:32:40.323Z,980.9
2022-12-25T11:38:12.432Z,980.92
2022-12-25T11:43:44.226Z,980.56
2022-12-25T11:49:20.331Z,980.79
2022-12-25T11:54:52.002Z,980.83
2022-12-25T12:00:23.452Z,981.02
2022-12-25T12:05:55.532Z,981.28
2022-12-25T12:11:26.957Z,981.1
2022-12-25T12:16:59.079Z,981.36
2022-12-25T12:22:30.416Z,981.66
2022-12-25T12:28:06.776Z,981.85
2022-12-25T12:33:33.973Z,981.26
2022-12-25T12:39:05.770Z,980.3
2022-12-25T12:44:37.940Z,980.66
2022-12-25T12:50:13.195Z,980.13
2022-12-25T12:55:45.004Z,980.26
2022-12-25T13:01:18.481Z,979.89
2022-12-25T13:06:48.665Z,979.73
2022-12-25T13:12:20.273Z,979.58
2022-12-25T13:17:52.182Z,979.34
2022-12-25T13:23:23.982Z,979.26
2022-12-25T13:28:55.698Z,979.65
2022-12-25T13:34:28.366Z,979.89
2022-12-25T13:39:59.801Z,979.97
2022-12-25T13:45:31.040Z,980.05
2022-12-25T13:51:06.740Z,979.54
2022-12-25T13:56:38.531Z,979.54
2022-12-25T14:02:10.811Z,979.2
2022-12-25T14:07:42.310Z,978.99
2022-12-25T14:13:13.816Z,978.74
2022-12-25T14:18:45.437Z,978.78
2022-12-25T14:24:17.165Z,978.49
2022-12-25T14:29:49.192Z,978.4
2022-12-25T14:35:24.584Z,978.16
2022-12-25T14:40:52.352Z,977.95
2022-12-25T14:46:24.633Z,977.89
2022-12-25T14:52:00.146Z,977.88
2022-12-25T14:57:31.909Z,977.92
2022-12-25T15:03:04.041Z,977.82
2022-12-25T15:08:35.585Z,977.52
2022-12-25T15:14:07.114Z,977.45
2022-12-25T15:19:40.004Z,977.8
2022-12-25T15:25:15.078Z,977.47
2022-12-25T15:30:42.309Z,977.42
2022-12-25T15:36:13.862Z,977.12
2022-12-25T15:41:45.715Z,977.04
2022-12-25T15:47:17.265Z,977.1
2022-12-25T15:52:53.377Z,976.94
2022-12-25T15:58:25.703Z,977.07
2022-12-25T16:03:57.305Z,977.33
2022-12-25T16:09:28.747Z,977.38
2022-12-25T16:15:00.326Z,977.28
2022-12-25T16:20:32.300Z,976.76
2022-12-25T16:26:03.777Z,976.76
2022-12-25T16:31:35.674Z,976.45
2022-12-25T16:37:07.269Z,976.29
2022-12-25T16:42:38.987Z,976.36
2022-12-25T16:48:10.886Z,976.6
2022-12-25T16:53:46.970Z,976.4
2022-12-25T16:59:18.880Z,976.52
2022-12-25T17:04:50.255Z,976.29
2022-12-25T17:10:21.983Z,975.9
2022-12-25T17:15:54.712Z,975.84
2022-12-25T17:21:25.588Z,975.84
2022-12-25T17:26:57.201Z,975.66
2022-12-25T17:32:28.949Z,975.58
2022-12-25T17:38:00.637Z,975.54
2022-12-25T17:43:32.341Z,975.72
2022-12-25T17:49:04.019Z,975.59
2022-12-25T17:54:41.966Z,975.52
2022-12-25T18:00:14.092Z,975.36
2022-12-25T18:05:45.470Z,975.36
2022-12-25T18:11:17.343Z,975.57
2022-12-25T18:16:49.450Z,975.71
2022-12-25T18:22:20.779Z,975.67
2022-12-25T18:27:52.382Z,975.93
2022-12-25T18:33:24.276Z,976.04
2022-12-25T18:38:55.812Z,975.25
2022-12-25T18:44:27.540Z,975.16
2022-12-25T18:49:59.901Z,975.34
2022-12-25T18:55:37.693Z,975.41
2022-12-25T19:01:09.936Z,975.34
2022-12-25T19:06:41.051Z,975.27
2022-12-25T19:12:12.925Z,975.04
2022-12-25T19:17:44.696Z,975.31
2022-12-25T19:23:16.510Z,975.41
2022-12-25T19:28:47.849Z,975.55
2022-12-25T19:34:19.587Z,975.09
2022-12-25T19:39:51.690Z,974.99
2022-12-25T19:45:23.668Z,974.81
2022-12-25T19:50:54.952Z,974.81
2022-12-25T19:56:33.150Z,974.93
2022-12-25T20:02:05.462Z,974.95
2022-12-25T20:07:36.583Z,975.01
2022-12-25T20:13:08.462Z,974.78
2022-12-25T20:18:39.673Z,974.76
2022-12-25T20:24:11.755Z,974.83
2022-12-25T20:29:44.486Z,975.03
2022-12-25T20:35:15.291Z,975.02
2022-12-25T20:41:28.958Z,975.15
2022-12-25T20:46:18.632Z,975.08
2022-12-25T20:51:50.315Z,975.13
2022-12-25T20:57:26.370Z,975.36
2022-12-25T21:02:58.427Z,975.48
2022-12-25T21:08:29.734Z,975.24
2022-12-25T21:14:01.903Z,975.16
2022-12-25T21:19:33.336Z,975.14
2022-12-25T21:25:04.846Z,975.2
2022-12-25T21:30:36.876Z,975.18
2022-12-25T21:36:08.605Z,975.15
2022-12-25T21:41:40.007Z,975.29
2022-12-25T21:47:11.973Z,975.23
2022-12-25T21:52:43.557Z,975.37
2022-12-25T21:58:19.675Z,975.42
2022-12-25T22:03:51.512Z,975.5
2022-12-25T22:09:23.301Z,975.27
2022-12-25T22:14:57.981Z,975.51
2022-12-25T22:20:26.735Z,975.72
2022-12-25T22:25:58.324Z,975.66
2022-12-25T22:31:30.206Z,975.76
2022-12-25T22:37:01.903Z,975.54
2022-12-25T22:42:33.377Z,975.76
2022-12-25T22:48:05.183Z,975.56
2022-12-25T22:53:36.967Z,975.61
2022-12-25T22:59:13.132Z,975.45
2022-12-25T23:04:44.784Z,975.37
2022-12-25T23:10:16.407Z,975.75
2022-12-25T23:15:48.580Z,975.69
2022-12-25T23:21:19.788Z,975.57
2022-12-25T23:26:51.899Z,975.58
2022-12-25T23:32:23.294Z,975.73
2022-12-25T23:37:55.159Z,975.37
2022-12-25T23:43:26.778Z,975.68
2022-12-25T23:48:58.631Z,975.48
2022-12-25T23:54:30.093Z,975.35
